sensor_id;sensor_type;location;lat;lon;timestamp;pressure;altitude;pressure_sealevel;temperature;humidity
46476;BME280;53376;51.114;14.738;2022-10-10T00:07:34;98981.09;;;14.20;49.72
46476;BME280;53376;51.114;14.738;2022-10-10T00:10:14;98981.09;;;14.20;49.89
46476;BME280;53376;51.114;14.738;2022-10-10T00:12:41;98984.53;;;14.22;49.79
46476;BME280;53376;51.114;14.738;2022-10-10T00:15:23;98979.25;;;14.21;49.84
46476;BME280;53376;51.114;14.738;2022-10-10T00:17:50;98972.13;;;14.21;49.81
46476;BME280;53376;51.114;14.738;2022-10-10T00:20:29;98968.69;;;14.19;49.95
46476;BME280;53376;51.114;14.738;2022-10-10T00:22:56;98963.56;;;14.16;49.93
46476;BME280;53376;51.114;14.738;2022-10-10T00:36:08;98953.94;;;14.13;50.14
46476;BME280;53376;51.114;14.738;2022-10-10T00:38:54;98954.13;;;14.10;50.03
46476;BME280;53376;51.114;14.738;2022-10-10T00:41:21;98950.69;;;14.08;50.07
46476;BME280;53376;51.114;14.738;2022-10-10T00:44:07;98952.63;;;14.06;50.30
46476;BME280;53376;51.114;14.738;2022-10-10T00:46:42;98947.38;;;14.05;50.17
46476;BME280;53376;51.114;14.738;2022-10-10T01:03:25;98939.97;;;13.95;50.18
46476;BME280;53376;51.114;14.738;2022-10-10T01:06:06;98940.19;;;13.92;50.24
46476;BME280;53376;51.114;14.738;2022-10-10T01:08:45;98932.16;;;13.92;50.21
46476;BME280;53376;51.114;14.738;2022-10-10T01:11:31;98931.41;;;13.90;50.20
46476;BME280;53376;51.114;14.738;2022-10-10T01:14:29;98915.38;;;13.90;50.13
46476;BME280;53376;51.114;14.738;2022-10-10T01:17:23;98921.78;;;13.88;50.15
46476;BME280;53376;51.114;14.738;2022-10-10T01:30:40;98897.88;;;13.72;50.00
46476;BME280;53376;51.114;14.738;2022-10-10T01:33:28;98898.28;;;13.65;50.38
46476;BME280;53376;51.114;14.738;2022-10-10T01:36:15;98886.84;;;13.63;50.48
46476;BME280;53376;51.114;14.738;2022-10-10T01:39:06;98878.09;;;13.61;50.63
46476;BME280;53376;51.114;14.738;2022-10-10T01:41:46;98893.25;;;13.61;50.58
46476;BME280;53376;51.114;14.738;2022-10-10T01:55:17;98867.16;;;13.51;50.66
46476;BME280;53376;51.114;14.738;2022-10-10T02:01:29;98869.06;;;13.49;50.52
46476;BME280;53376;51.114;14.738;2022-10-10T02:04:24;98865.94;;;13.43;50.60
46476;BME280;53376;51.114;14.738;2022-10-10T02:07:08;98861.56;;;13.42;50.59
46476;BME280;53376;51.114;14.738;2022-10-10T02:23:50;98834.34;;;13.35;50.68
46476;BME280;53376;51.114;14.738;2022-10-10T02:26:32;98845.25;;;13.32;50.38
46476;BME280;53376;51.114;14.738;2022-10-10T02:29:18;98845.53;;;13.27;50.40
46476;BME280;53376;51.114;14.738;2022-10-10T02:31:56;98837.75;;;13.24;50.42
46476;BME280;53376;51.114;14.738;2022-10-10T02:34:45;98827.25;;;13.21;50.45
46476;BME280;53376;51.114;14.738;2022-10-10T02:37:23;98827.25;;;13.21;50.63
46476;BME280;53376;51.114;14.738;2022-10-10T02:50:37;98824.81;;;13.03;50.35
46476;BME280;53376;51.114;14.738;2022-10-10T02:53:17;98827.50;;;13.03;50.52
46476;BME280;53376;51.114;14.738;2022-10-10T02:55:44;98832.94;;;13.02;50.56
46476;BME280;53376;51.114;14.738;2022-10-10T02:58:17;98825.00;;;13.00;50.50
46476;BME280;53376;51.114;14.738;2022-10-10T03:00:57;98818.06;;;12.98;50.70
46476;BME280;53376;51.114;14.738;2022-10-10T03:03:24;98829.78;;;12.95;50.63
46476;BME280;53376;51.114;14.738;2022-10-10T03:16:21;98817.94;;;12.99;50.70
46476;BME280;53376;51.114;14.738;2022-10-10T03:19:01;98803.88;;;12.97;50.56
46476;BME280;53376;51.114;14.738;2022-10-10T03:21:41;98809.22;;;12.97;50.60
46476;BME280;53376;51.114;14.738;2022-10-10T03:24:08;98802.16;;;12.96;50.54
46476;BME280;53376;51.114;14.738;2022-10-10T03:26:41;98810.25;;;12.95;50.39
46476;BME280;53376;51.114;14.738;2022-10-10T03:43:19;98789.59;;;12.84;50.77
46476;BME280;53376;51.114;14.738;2022-10-10T03:45:59;98794.16;;;12.82;50.84
46476;BME280;53376;51.114;14.738;2022-10-10T03:48:44;98780.84;;;12.82;50.65
46476;BME280;53376;51.114;14.738;2022-10-10T03:51:11;98785.44;;;12.80;50.64
46476;BME280;53376;51.114;14.738;2022-10-10T03:53:50;98778.38;;;12.79;50.63
46476;BME280;53376;51.114;14.738;2022-10-10T03:56:17;98779.44;;;12.76;50.57
46476;BME280;53376;51.114;14.738;2022-10-10T04:09:17;98761.28;;;12.54;50.87
46476;BME280;53376;51.114;14.738;2022-10-10T04:11:56;98765.66;;;12.55;50.98
46476;BME280;53376;51.114;14.738;2022-10-10T04:14:36;98763.94;;;12.54;51.16
46476;BME280;53376;51.114;14.738;2022-10-10T04:17:03;98760.72;;;12.49;50.73
46476;BME280;53376;51.114;14.738;2022-10-10T04:19:36;98754.59;;;12.47;50.77
46476;BME280;53376;51.114;14.738;2022-10-10T04:22:16;98760.88;;;12.46;50.77
46476;BME280;53376;51.114;14.738;2022-10-10T04:35:08;98751.94;;;12.47;51.06
46476;BME280;53376;51.114;14.738;2022-10-10T04:37:48;98742.22;;;12.46;50.99
46476;BME280;53376;51.114;14.738;2022-10-10T04:40:28;98744.13;;;12.44;51.13
46476;BME280;53376;51.114;14.738;2022-10-10T04:42:55;98742.44;;;12.43;51.12
46476;BME280;53376;51.114;14.738;2022-10-10T04:45:28;98737.84;;;12.45;51.38
46476;BME280;53376;51.114;14.738;2022-10-10T04:48:10;98727.00;;;12.48;51.31
46476;BME280;53376;51.114;14.738;2022-10-10T05:04:18;98710.25;;;12.46;51.51
46476;BME280;53376;51.114;14.738;2022-10-10T05:06:57;98697.88;;;12.45;51.44
46476;BME280;53376;51.114;14.738;2022-10-10T05:09:24;98689.13;;;12.43;51.33
46476;BME280;53376;51.114;14.738;2022-10-10T05:12:04;98687.50;;;12.40;51.39
46476;BME280;53376;51.114;14.738;2022-10-10T05:14:34;98679.69;;;12.37;51.48
46476;BME280;53376;51.114;14.738;2022-10-10T05:17:20;98683.41;;;12.34;51.38
46476;BME280;53376;51.114;14.738;2022-10-10T05:30:04;98670.88;;;12.36;51.46
46476;BME280;53376;51.114;14.738;2022-10-10T05:32:44;98665.31;;;12.39;51.65
46476;BME280;53376;51.114;14.738;2022-10-10T05:35:25;98654.78;;;12.38;51.57
46476;BME280;53376;51.114;14.738;2022-10-10T05:37:52;98654.88;;;12.36;51.38
46476;BME280;53376;51.114;14.738;2022-10-10T05:40:31;98650.38;;;12.37;51.68
46476;BME280;53376;51.114;14.738;2022-10-10T05:42:58;98657.63;;;12.35;51.55
46476;BME280;53376;51.114;14.738;2022-10-10T05:55:48;98648.00;;;12.32;51.87
46476;BME280;53376;51.114;14.738;2022-10-10T05:58:28;98645.28;;;12.34;51.94
46476;BME280;53376;51.114;14.738;2022-10-10T06:01:08;98641.72;;;12.33;52.09
46476;BME280;53376;51.114;14.738;2022-10-10T06:03:35;98646.13;;;12.34;51.97
46476;BME280;53376;51.114;14.738;2022-10-10T06:06:15;98642.50;;;12.35;52.06
46476;BME280;53376;51.114;14.738;2022-10-10T06:08:42;98646.13;;;12.34;51.87
46476;BME280;53376;51.114;14.738;2022-10-10T06:11:18;98651.44;;;12.34;51.87
46476;BME280;53376;51.114;14.738;2022-10-10T06:24:27;98647.81;;;12.35;51.88
46476;BME280;53376;51.114;14.738;2022-10-10T06:27:09;98647.81;;;12.35;51.89
46476;BME280;53376;51.114;14.738;2022-10-10T06:29:36;98640.00;;;12.32;51.87
46476;BME280;53376;51.114;14.738;2022-10-10T06:32:15;98643.44;;;12.34;52.04
46476;BME280;53376;51.114;14.738;2022-10-10T06:34:42;98644.22;;;12.36;52.08
46476;BME280;53376;51.114;14.738;2022-10-10T06:37:15;98637.91;;;12.37;52.22
46476;BME280;53376;51.114;14.738;2022-10-10T06:50:27;98630.38;;;12.44;52.34
46476;BME280;53376;51.114;14.738;2022-10-10T06:53:06;98631.03;;;12.48;52.46
46476;BME280;53376;51.114;14.738;2022-10-10T06:55:33;98630.81;;;12.51;52.47
46476;BME280;53376;51.114;14.738;2022-10-10T06:58:06;98630.75;;;12.52;52.75
46476;BME280;53376;51.114;14.738;2022-10-10T07:00:48;98635.03;;;12.55;52.71
46476;BME280;53376;51.114;14.738;2022-10-10T07:03:15;98632.16;;;12.58;52.70
46476;BME280;53376;51.114;14.738;2022-10-10T07:16:27;98622.56;;;12.68;53.26
46476;BME280;53376;51.114;14.738;2022-10-10T07:19:07;98623.22;;;12.72;53.25
46476;BME280;53376;51.114;14.738;2022-10-10T07:21:34;98607.03;;;12.75;53.45
46476;BME280;53376;51.114;14.738;2022-10-10T07:24:07;98607.69;;;12.79;53.44
46476;BME280;53376;51.114;14.738;2022-10-10T07:26:49;98619.88;;;12.83;53.52
46476;BME280;53376;51.114;14.738;2022-10-10T07:29:15;98603.69;;;12.86;53.49
46476;BME280;53376;51.114;14.738;2022-10-10T07:31:58;98606.13;;;12.89;53.77
46476;BME280;53376;51.114;14.738;2022-10-10T07:44:39;98632.50;;;13.06;53.66
46476;BME280;53376;51.114;14.738;2022-10-10T07:47:21;98634.03;;;13.11;53.72
46476;BME280;53376;51.114;14.738;2022-10-10T07:50:00;98632.09;;;13.13;53.90
46476;BME280;53376;51.114;14.738;2022-10-10T07:52:27;98632.75;;;13.16;53.84
46476;BME280;53376;51.114;14.738;2022-10-10T07:55:00;98625.41;;;13.20;53.90
46476;BME280;53376;51.114;14.738;2022-10-10T07:57:40;98618.91;;;13.24;53.88
46476;BME280;53376;51.114;14.738;2022-10-10T08:10:23;98644.56;;;13.40;54.09
46476;BME280;53376;51.114;14.738;2022-10-10T08:13:03;98643.50;;;13.42;54.02
46476;BME280;53376;51.114;14.738;2022-10-10T08:15:43;98654.81;;;13.46;54.03
46476;BME280;53376;51.114;14.738;2022-10-10T08:18:10;98630.59;;;13.49;54.07
46476;BME280;53376;51.114;14.738;2022-10-10T08:20:43;98617.78;;;13.54;54.21
46476;BME280;53376;51.114;14.738;2022-10-10T08:23:23;98616.59;;;13.58;54.19
46476;BME280;53376;51.114;14.738;2022-10-10T08:36:08;98601.44;;;13.72;53.87
46476;BME280;53376;51.114;14.738;2022-10-10T08:38:50;98587.84;;;13.75;54.02
46476;BME280;53376;51.114;14.738;2022-10-10T08:41:39;98599.41;;;13.75;54.24
46476;BME280;53376;51.114;14.738;2022-10-10T08:44:22;98595.66;;;13.78;54.17
46476;BME280;53376;51.114;14.738;2022-10-10T08:47:11;98588.16;;;13.83;54.38
46476;BME280;53376;51.114;14.738;2022-10-10T08:49:54;98589.66;;;13.87;54.18
46476;BME280;53376;51.114;14.738;2022-10-10T08:52:42;98599.06;;;13.93;54.15
46476;BME280;53376;51.114;14.738;2022-10-10T09:02:37;98568.47;;;14.10;54.24
46476;BME280;53376;51.114;14.738;2022-10-10T09:05:45;98567.13;;;14.15;54.37
46476;BME280;53376;51.114;14.738;2022-10-10T09:08:38;98556.88;;;14.22;54.31
46476;BME280;53376;51.114;14.738;2022-10-10T09:11:37;98563.69;;;14.26;54.31
46476;BME280;53376;51.114;14.738;2022-10-10T09:14:29;98559.81;;;14.30;54.42
46476;BME280;53376;51.114;14.738;2022-10-10T09:17:24;98571.88;;;14.36;54.65
46476;BME280;53376;51.114;14.738;2022-10-10T09:30:46;98583.28;;;14.51;54.16
46476;BME280;53376;51.114;14.738;2022-10-10T09:33:35;98591.78;;;14.56;54.10
46476;BME280;53376;51.114;14.738;2022-10-10T09:36:20;98599.38;;;14.62;54.00
46476;BME280;53376;51.114;14.738;2022-10-10T09:38:59;98593.72;;;14.67;54.15
46476;BME280;53376;51.114;14.738;2022-10-10T09:41:48;98594.09;;;14.74;53.70
46476;BME280;53376;51.114;14.738;2022-10-10T09:58:15;98606.91;;;15.17;53.29
46476;BME280;53376;51.114;14.738;2022-10-10T10:01:16;98606.44;;;15.23;53.08
46476;BME280;53376;51.114;14.738;2022-10-10T10:04:11;98613.03;;;15.30;53.02
46476;BME280;53376;51.114;14.738;2022-10-10T10:07:05;98612.56;;;15.37;53.14
46476;BME280;53376;51.114;14.738;2022-10-10T10:09:46;98601.28;;;15.44;53.14
46476;BME280;53376;51.114;14.738;2022-10-10T10:12:28;98609.69;;;15.51;53.02
46476;BME280;53376;51.114;14.738;2022-10-10T10:25:31;98586.31;;;15.76;52.49
46476;BME280;53376;51.114;14.738;2022-10-10T10:28:19;98593.38;;;15.77;52.07
46476;BME280;53376;51.114;14.738;2022-10-10T10:31:18;98594.00;;;15.80;52.48
46476;BME280;53376;51.114;14.738;2022-10-10T10:34:31;98602.56;;;15.86;52.13
46476;BME280;53376;51.114;14.738;2022-10-10T10:37:26;98610.22;;;15.90;52.12
46476;BME280;53376;51.114;14.738;2022-10-10T10:50:37;98601.22;;;16.03;51.36
46476;BME280;53376;51.114;14.738;2022-10-10T10:53:32;98596.34;;;16.08;51.09
46476;BME280;53376;51.114;14.738;2022-10-10T10:56:28;98598.03;;;16.09;50.76
46476;BME280;53376;51.114;14.738;2022-10-10T10:59:36;98582.56;;;16.13;50.93
46476;BME280;53376;51.114;14.738;2022-10-10T11:02:57;98588.28;;;16.19;50.94
46476;BME280;53376;51.114;14.738;2022-10-10T11:16:26;98593.34;;;16.45;51.13
46476;BME280;53376;51.114;14.738;2022-10-10T11:19:28;98584.78;;;16.51;51.09
46476;BME280;53376;51.114;14.738;2022-10-10T11:22:16;98589.66;;;16.57;51.17
46476;BME280;53376;51.114;14.738;2022-10-10T11:24:55;98576.56;;;16.64;51.04
46476;BME280;53376;51.114;14.738;2022-10-10T11:27:44;98576.94;;;16.71;51.36
46476;BME280;53376;51.114;14.738;2022-10-10T11:30:22;98582.50;;;16.79;51.58
46476;BME280;53376;51.114;14.738;2022-10-10T11:33:12;98588.69;;;16.91;51.27
46476;BME280;53376;51.114;14.738;2022-10-10T11:43:07;98579.75;;;17.02;50.51
46476;BME280;53376;51.114;14.738;2022-10-10T11:45:59;98574.38;;;17.02;50.36
46476;BME280;53376;51.114;14.738;2022-10-10T11:48:50;98571.44;;;17.05;50.42
46476;BME280;53376;51.114;14.738;2022-10-10T11:51:42;98578.38;;;17.07;50.62
46476;BME280;53376;51.114;14.738;2022-10-10T11:54:27;98567.38;;;17.11;51.05
46476;BME280;53376;51.114;14.738;2022-10-10T11:57:18;98561.88;;;17.12;51.21
46476;BME280;53376;51.114;14.738;2022-10-10T12:10:19;98546.56;;;17.24;50.49
46476;BME280;53376;51.114;14.738;2022-10-10T12:13:23;98552.53;;;17.28;50.61
46476;BME280;53376;51.114;14.738;2022-10-10T12:16:09;98551.66;;;17.27;50.93
46476;BME280;53376;51.114;14.738;2022-10-10T12:18:51;98543.44;;;17.29;51.15
46476;BME280;53376;51.114;14.738;2022-10-10T12:21:52;98537.00;;;17.31;51.21
46476;BME280;53376;51.114;14.738;2022-10-10T12:38:17;98527.28;;;17.71;51.01
46476;BME280;53376;51.114;14.738;2022-10-10T12:41:09;98528.16;;;17.81;51.12
46476;BME280;53376;51.114;14.738;2022-10-10T12:44:19;98520.84;;;17.93;50.62
46476;BME280;53376;51.114;14.738;2022-10-10T12:47:19;98521.34;;;18.08;50.62
46476;BME280;53376;51.114;14.738;2022-10-10T12:50:23;98515.84;;;18.19;50.61
46476;BME280;53376;51.114;14.738;2022-10-10T12:53:17;98509.63;;;18.29;50.13
46476;BME280;53376;51.114;14.738;2022-10-10T13:06:10;98494.78;;;18.83;48.21
46476;BME280;53376;51.114;14.738;2022-10-10T13:08:54;98497.44;;;18.93;48.62
46476;BME280;53376;51.114;14.738;2022-10-10T13:11:49;98494.66;;;18.95;48.30
46476;BME280;53376;51.114;14.738;2022-10-10T13:14:38;98503.97;;;18.91;48.61
46476;BME280;53376;51.114;14.738;2022-10-10T13:17:21;98491.06;;;18.84;48.61
46476;BME280;53376;51.114;14.738;2022-10-10T13:30:18;98490.84;;;19.35;47.40
46476;BME280;53376;51.114;14.738;2022-10-10T13:32:59;98494.88;;;19.59;46.83
46476;BME280;53376;51.114;14.738;2022-10-10T13:35:39;98492.69;;;19.72;46.68
46476;BME280;53376;51.114;14.738;2022-10-10T13:38:06;98489.81;;;19.84;46.47
46476;BME280;53376;51.114;14.738;2022-10-10T13:40:41;98500.88;;;19.80;46.17
46476;BME280;53376;51.114;14.738;2022-10-10T13:43:21;98494.09;;;19.76;46.72
46476;BME280;53376;51.114;14.738;2022-10-10T13:59:29;98492.63;;;19.07;48.20
46476;BME280;53376;51.114;14.738;2022-10-10T14:02:14;98493.75;;;19.04;48.49
46476;BME280;53376;51.114;14.738;2022-10-10T14:04:51;98500.13;;;19.03;48.53
46476;BME280;53376;51.114;14.738;2022-10-10T14:07:33;98500.28;;;19.01;48.70
46476;BME280;53376;51.114;14.738;2022-10-10T14:10:04;98504.84;;;19.01;48.45
46476;BME280;53376;51.114;14.738;2022-10-10T14:12:51;98504.25;;;19.07;48.55
46476;BME280;53376;51.114;14.738;2022-10-10T14:25:45;98487.19;;;19.26;47.84
46476;BME280;53376;51.114;14.738;2022-10-10T14:28:28;98484.09;;;19.21;48.01
46476;BME280;53376;51.114;14.738;2022-10-10T14:31:10;98492.59;;;19.16;48.12
46476;BME280;53376;51.114;14.738;2022-10-10T14:33:38;98493.03;;;19.12;48.42
46476;BME280;53376;51.114;14.738;2022-10-10T14:36:17;98497.16;;;19.06;48.32
46476;BME280;53376;51.114;14.738;2022-10-10T14:38:43;98491.78;;;18.96;48.48
46476;BME280;53376;51.114;14.738;2022-10-10T14:51:41;98477.34;;;18.58;49.37
46476;BME280;53376;51.114;14.738;2022-10-10T14:54:20;98481.59;;;18.51;49.42
46476;BME280;53376;51.114;14.738;2022-10-10T14:57:00;98485.56;;;18.47;49.82
46476;BME280;53376;51.114;14.738;2022-10-10T14:59:41;98489.66;;;18.41;49.76
46476;BME280;53376;51.114;14.738;2022-10-10T15:02:22;98494.63;;;18.36;49.80
46476;BME280;53376;51.114;14.738;2022-10-10T15:18:30;98487.81;;;18.12;50.30
46476;BME280;53376;51.114;14.738;2022-10-10T15:21:26;98491.78;;;18.08;50.74
46476;BME280;53376;51.114;14.738;2022-10-10T15:23:53;98484.84;;;18.06;50.72
46476;BME280;53376;51.114;14.738;2022-10-10T15:26:33;98484.38;;;18.00;50.53
46476;BME280;53376;51.114;14.738;2022-10-10T15:29:00;98486.47;;;17.97;50.62
46476;BME280;53376;51.114;14.738;2022-10-10T15:31:33;98482.34;;;17.93;50.99
46476;BME280;53376;51.114;14.738;2022-10-10T15:44:46;98492.63;;;17.78;51.38
46476;BME280;53376;51.114;14.738;2022-10-10T15:47:26;98494.75;;;17.74;51.28
46476;BME280;53376;51.114;14.738;2022-10-10T15:49:53;98490.50;;;17.71;51.32
46476;BME280;53376;51.114;14.738;2022-10-10T15:52:26;98491.63;;;17.69;51.56
46476;BME280;53376;51.114;14.738;2022-10-10T15:55:07;98496.41;;;17.65;51.80
46476;BME280;53376;51.114;14.738;2022-10-10T15:57:34;98490.47;;;17.62;51.70
46476;BME280;53376;51.114;14.738;2022-10-10T16:10:45;98507.06;;;17.46;52.03
46476;BME280;53376;51.114;14.738;2022-10-10T16:13:24;98511.88;;;17.42;51.99
46476;BME280;53376;51.114;14.738;2022-10-10T16:15:57;98505.22;;;17.36;52.14
46476;BME280;53376;51.114;14.738;2022-10-10T16:18:40;98507.16;;;17.34;52.35
46476;BME280;53376;51.114;14.738;2022-10-10T16:21:09;98512.69;;;17.33;52.30
46476;BME280;53376;51.114;14.738;2022-10-10T16:23:51;98510.38;;;17.28;52.41
46476;BME280;53376;51.114;14.738;2022-10-10T16:26:32;98519.56;;;17.26;52.33
46476;BME280;53376;51.114;14.738;2022-10-10T16:39:42;98520.16;;;17.08;52.99
46476;BME280;53376;51.114;14.738;2022-10-10T16:42:16;98522.25;;;17.04;52.91
46476;BME280;53376;51.114;14.738;2022-10-10T16:44:50;98531.44;;;17.02;53.17
46476;BME280;53376;51.114;14.738;2022-10-10T16:47:34;98529.72;;;17.01;53.17
46476;BME280;53376;51.114;14.738;2022-10-10T16:50:01;98539.72;;;16.99;52.98
46476;BME280;53376;51.114;14.738;2022-10-10T16:52:41;98544.41;;;16.97;53.19
46476;BME280;53376;51.114;14.738;2022-10-10T17:05:24;98552.22;;;16.88;53.18
46476;BME280;53376;51.114;14.738;2022-10-10T17:08:03;98560.25;;;16.88;53.25
46476;BME280;53376;51.114;14.738;2022-10-10T17:10:43;98555.13;;;16.85;53.35
46476;BME280;53376;51.114;14.738;2022-10-10T17:13:10;98560.63;;;16.84;53.43
46476;BME280;53376;51.114;14.738;2022-10-10T17:15:43;98558.09;;;16.82;53.51
46476;BME280;53376;51.114;14.738;2022-10-10T17:18:23;98554.69;;;16.80;53.60
46476;BME280;53376;51.114;14.738;2022-10-10T17:31:08;98562.53;;;16.72;54.28
46476;BME280;53376;51.114;14.738;2022-10-10T17:33:48;98573.50;;;16.69;54.17
46476;BME280;53376;51.114;14.738;2022-10-10T17:36:28;98564.72;;;16.67;54.39
46476;BME280;53376;51.114;14.738;2022-10-10T17:39:02;98561.34;;;16.65;53.80
46476;BME280;53376;51.114;14.738;2022-10-10T17:41:42;98563.28;;;16.63;53.90
46476;BME280;53376;51.114;14.738;2022-10-10T17:44:09;98567.91;;;16.60;53.85
46476;BME280;53376;51.114;14.738;2022-10-10T17:46:44;98559.03;;;16.60;54.01
46476;BME280;53376;51.114;14.738;2022-10-10T17:59:54;98541.59;;;16.54;54.13
46476;BME280;53376;51.114;14.738;2022-10-10T18:02:35;98543.44;;;16.54;54.37
46476;BME280;53376;51.114;14.738;2022-10-10T18:05:02;98541.75;;;16.53;54.16
46476;BME280;53376;51.114;14.738;2022-10-10T18:07:42;98546.28;;;16.52;54.19
46476;BME280;53376;51.114;14.738;2022-10-10T18:10:09;98543.69;;;16.51;54.49
46476;BME280;53376;51.114;14.738;2022-10-10T18:12:42;98543.69;;;16.51;54.22
46476;BME280;53376;51.114;14.738;2022-10-10T18:25:59;98555.78;;;16.45;54.45
46476;BME280;53376;51.114;14.738;2022-10-10T18:28:41;98567.50;;;16.44;54.68
46476;BME280;53376;51.114;14.738;2022-10-10T18:31:13;98569.34;;;16.43;54.49
46476;BME280;53376;51.114;14.738;2022-10-10T18:33:54;98577.50;;;16.42;54.46
46476;BME280;53376;51.114;14.738;2022-10-10T18:36:24;98580.16;;;16.42;54.77
46476;BME280;53376;51.114;14.738;2022-10-10T18:53:01;98576.19;;;16.36;55.03
46476;BME280;53376;51.114;14.738;2022-10-10T18:55:40;98579.84;;;16.35;55.22
46476;BME280;53376;51.114;14.738;2022-10-10T18:58:20;98580.81;;;16.34;55.11
46476;BME280;53376;51.114;14.738;2022-10-10T19:00:47;98571.91;;;16.34;55.19
46476;BME280;53376;51.114;14.738;2022-10-10T19:03:20;98563.13;;;16.32;55.10
46476;BME280;53376;51.114;14.738;2022-10-10T19:06:01;98566.66;;;16.32;55.05
46476;BME280;53376;51.114;14.738;2022-10-10T19:08:38;98571.19;;;16.32;55.20
46476;BME280;53376;51.114;14.738;2022-10-10T19:18:23;98563.50;;;16.27;55.10
46476;BME280;53376;51.114;14.738;2022-10-10T19:21:03;98562.81;;;16.25;55.22
46476;BME280;53376;51.114;14.738;2022-10-10T19:23:45;98567.44;;;16.23;55.37
46476;BME280;53376;51.114;14.738;2022-10-10T19:26:14;98571.94;;;16.22;55.39
46476;BME280;53376;51.114;14.738;2022-10-10T19:28:56;98573.91;;;16.20;55.35
46476;BME280;53376;51.114;14.738;2022-10-10T19:31:23;98575.84;;;16.18;55.38
46476;BME280;53376;51.114;14.738;2022-10-10T19:44:41;98588.03;;;16.11;55.90
46476;BME280;53376;51.114;14.738;2022-10-10T19:47:21;98593.53;;;16.09;55.89
46476;BME280;53376;51.114;14.738;2022-10-10T19:49:48;98597.31;;;16.07;55.75
46476;BME280;53376;51.114;14.738;2022-10-10T19:52:21;98601.94;;;16.05;55.85
46476;BME280;53376;51.114;14.738;2022-10-10T19:55:01;98601.09;;;16.04;55.53
46476;BME280;53376;51.114;14.738;2022-10-10T19:57:28;98606.44;;;16.04;55.67
46476;BME280;53376;51.114;14.738;2022-10-10T20:14:05;98620.69;;;15.93;55.89
46476;BME280;53376;51.114;14.738;2022-10-10T20:16:32;98612.91;;;15.90;55.85
46476;BME280;53376;51.114;14.738;2022-10-10T20:19:12;98624.59;;;15.89;56.00
46476;BME280;53376;51.114;14.738;2022-10-10T20:21:39;98616.69;;;15.88;56.01
46476;BME280;53376;51.114;14.738;2022-10-10T20:24:12;98627.63;;;15.85;56.18
46476;BME280;53376;51.114;14.738;2022-10-10T20:26:52;98624.13;;;15.84;56.14
46476;BME280;53376;51.114;14.738;2022-10-10T20:39:35;98632.84;;;15.75;56.13
46476;BME280;53376;51.114;14.738;2022-10-10T20:42:14;98634.78;;;15.73;55.97
46476;BME280;53376;51.114;14.738;2022-10-10T20:44:54;98631.38;;;15.71;56.22
46476;BME280;53376;51.114;14.738;2022-10-10T20:47:21;98635.03;;;15.70;56.31
46476;BME280;53376;51.114;14.738;2022-10-10T20:49:54;98638.66;;;15.69;56.35
46476;BME280;53376;51.114;14.738;2022-10-10T20:52:34;98639.63;;;15.68;56.51
46476;BME280;53376;51.114;14.738;2022-10-10T21:05:18;98633.06;;;15.60;56.30
46476;BME280;53376;51.114;14.738;2022-10-10T21:07:57;98644.75;;;15.59;56.42
46476;BME280;53376;51.114;14.738;2022-10-10T21:10:37;98650.13;;;15.59;56.47
46476;BME280;53376;51.114;14.738;2022-10-10T21:13:04;98647.66;;;15.56;56.67
46476;BME280;53376;51.114;14.738;2022-10-10T21:15:42;98653.03;;;15.56;56.67
46476;BME280;53376;51.114;14.738;2022-10-10T21:18:21;98651.22;;;15.57;56.57
46476;BME280;53376;51.114;14.738;2022-10-10T21:31:41;98661.06;;;15.56;56.49
46476;BME280;53376;51.114;14.738;2022-10-10T21:34:21;98668.34;;;15.54;56.44
46476;BME280;53376;51.114;14.738;2022-10-10T21:37:03;98670.31;;;15.52;56.37
46476;BME280;53376;51.114;14.738;2022-10-10T21:39:30;98665.06;;;15.51;56.60
46476;BME280;53376;51.114;14.738;2022-10-10T21:42:09;98664.94;;;15.52;56.74
46476;BME280;53376;51.114;14.738;2022-10-10T21:44:36;98665.06;;;15.51;56.36
46476;BME280;53376;51.114;14.738;2022-10-10T21:47:11;98661.53;;;15.50;56.83
46476;BME280;53376;51.114;14.738;2022-10-10T22:00:20;98676.34;;;15.43;56.70
46476;BME280;53376;51.114;14.738;2022-10-10T22:03:02;98677.31;;;15.42;56.85
46476;BME280;53376;51.114;14.738;2022-10-10T22:05:29;98675.63;;;15.41;56.85
46476;BME280;53376;51.114;14.738;2022-10-10T22:08:08;98679.41;;;15.38;56.96
46476;BME280;53376;51.114;14.738;2022-10-10T22:10:38;98676.72;;;15.38;57.07
46476;BME280;53376;51.114;14.738;2022-10-10T22:13:18;98682.19;;;15.37;57.11
46476;BME280;53376;51.114;14.738;2022-10-10T22:26:01;98687.78;;;15.34;57.67
46476;BME280;53376;51.114;14.738;2022-10-10T22:28:45;98688.63;;;15.34;57.57
46476;BME280;53376;51.114;14.738;2022-10-10T22:31:25;98689.50;;;15.35;57.57
46476;BME280;53376;51.114;14.738;2022-10-10T22:33:52;98689.72;;;15.31;57.69
46476;BME280;53376;51.114;14.738;2022-10-10T22:36:32;98688.88;;;15.31;57.86
46476;BME280;53376;51.114;14.738;2022-10-10T22:38:59;98693.47;;;15.29;57.83
46476;BME280;53376;51.114;14.738;2022-10-10T22:51:56;98695.53;;;15.25;58.07
46476;BME280;53376;51.114;14.738;2022-10-10T22:54:42;98700.88;;;15.25;57.98
46476;BME280;53376;51.114;14.738;2022-10-10T22:57:22;98715.03;;;15.27;57.79
46476;BME280;53376;51.114;14.738;2022-10-10T22:59:49;98716.81;;;15.27;57.87
46476;BME280;53376;51.114;14.738;2022-10-10T23:02:22;98715.97;;;15.26;58.14
46476;BME280;53376;51.114;14.738;2022-10-10T23:05:03;98716.19;;;15.23;58.01
46476;BME280;53376;51.114;14.738;2022-10-10T23:07:32;98715.34;;;15.23;58.10
46476;BME280;53376;51.114;14.738;2022-10-10T23:20:44;98723.72;;;15.18;58.29
46476;BME280;53376;51.114;14.738;2022-10-10T23:23:25;98737.09;;;15.18;58.49
46476;BME280;53376;51.114;14.738;2022-10-10T23:25:52;98739.91;;;15.17;58.29
46476;BME280;53376;51.114;14.738;2022-10-10T23:28:31;98741.00;;;15.14;58.19